Astoria, OR

4:50 PM PST on February 19, 2017 (GMT -0800)
N7BAG | | Change Station

Elev 338 ft 46.18 °N, 123.82 °W | Updated 11 seconds ago

Overcast
Overcast
44.2 °F
Feels Like 44 °F
N
0.0
Wind Variable Wind from South
Gusts 4.2 mph

Today
High -- | Low -- °F
--% Chance of Precip.
Yesterday
High -- | Low -- °F
Precip. -- in
Pressure 29.51 in
Visibility 9.0 miles
Clouds Mostly Cloudy 2600 ft
Mostly Cloudy 3400 ft
Overcast 4100 ft
Windchill 44 °F
Dew Point 42 °F
Humidity 91%
Rainfall 1.11 in
Snow Depth Not available.
7:11 AM 5:47 PM
Last Quarter, 39% visible
SPECI KAST 200047Z AUTO 19009KT 9SM -RA BKN026 BKN034 OVC041 08/05 A2951 RMK AO2 RAE19B41 P0003 T00780050
Pressure 29.51 in
Visibility 9.0 miles
Clouds Mostly Cloudy 2600 ft
Mostly Cloudy 3400 ft
Overcast 4100 ft
Windchill 44 °F
Dew Point 42 °F
Humidity 91%
Rainfall 1.11 in
Snow Depth Not available.
7:11 AM 5:47 PM
Last Quarter, 39% visible
SPECI KAST 200047Z AUTO 19009KT 9SM -RA BKN026 BKN034 OVC041 08/05 A2951 RMK AO2 RAE19B41 P0003 T00780050

Get Your Daily Forecast Email!

Thanks for signing up!

Be on the lookout for a verification email in your inbox.

You'll start receiving the daily forecast at 8 AM.

×

10-Day Weather Forecast

Almanac

Astronomy

Feb. 19, 2017 Rise Set
Actual Time
Civil Twilight
Nautical Twilight
Astronomical Twilight
Moon
Length of Visible Light
Length of Day
Tomorrow will be .
, % of the Moon is Illuminated

Today's Extremes

State Highs State Lows

Community

WunderPhotos

Upload Photos

1,962,540 photos uploaded!

WunderBlog® & News

Nearby

Air Quality

  Air Quality AQ Index Pollutant
Not available.

Snow Depth

Station Depth Elevation

Earthquake Activity

City Distance Mag. Time & Date
Minimum magnitude displayed is 2.5.

Coastal Water Temperatures

Place Temperature

Stations

Nearby Weather Stations

Station Location Temp. Windchill Dew Point Humidity Wind Precip. Elev Updated Type
                   

Watches & Warnings

Small Craft for Rough Bar Advisory
Issued: 1:29 PM PST Feb. 19, 2017 – National Weather Service

... Small Craft Advisory for rough bar now in effect from 10 PM
this evening to 2 PM PST Monday...

* in the Main Channel...

* general seas... around 10 ft.

* First Ebb... around 1130 PM tonight. Seas near 12 ft.

* Second Ebb... around 1215 PM Sunday. Seas near 10 ft.

Precautionary/preparedness actions...

A Small Craft Advisory for rough bar means that wave conditions
are expected to be hazardous to small craft in or near Harbor
entrances.